createdAt,value
2023-01-10T00:00:56.434Z,3.04
2023-01-10T00:03:26.146Z,3.42
2023-01-10T00:05:55.941Z,3.61
2023-01-10T00:08:25.735Z,3.42
2023-01-10T00:10:55.460Z,3.42
2023-01-10T00:13:25.277Z,3.80
2023-01-10T00:15:56.763Z,3.61
2023-01-10T00:18:24.500Z,3.80
2023-01-10T00:20:54.534Z,3.61
2023-01-10T00:23:22.803Z,4.18
2023-01-10T00:25:52.501Z,4.37
2023-01-10T00:28:23.999Z,3.80
2023-01-10T00:31:04.480Z,4.18
2023-01-10T00:33:36.739Z,3.80
2023-01-10T00:36:08.214Z,3.61
2023-01-10T00:38:37.506Z,3.99
2023-01-10T00:41:27.264Z,4.37
2023-01-10T00:43:57.773Z,3.61
2023-01-10T00:46:27.477Z,3.99
2023-01-10T00:48:57.382Z,3.80
2023-01-10T00:51:27.314Z,3.80
2023-01-10T00:53:57.531Z,4.18
2023-01-10T00:56:27.232Z,4.56
2023-01-10T00:58:57.020Z,4.56
2023-01-10T01:01:26.898Z,3.80
2023-01-10T01:03:56.880Z,4.56
2023-01-10T01:06:27.774Z,4.37
2023-01-10T01:08:57.672Z,3.99
2023-01-10T01:11:27.377Z,4.75
2023-01-10T01:13:57.179Z,4.18
2023-01-10T01:16:26.936Z,5.13
2023-01-10T01:18:58.264Z,4.56
2023-01-10T01:21:28.381Z,4.56
2023-01-10T01:23:57.976Z,4.37
2023-01-10T01:26:27.795Z,4.37
2023-01-10T01:28:59.573Z,4.94
2023-01-10T01:31:27.304Z,4.75
2023-01-10T01:33:54.395Z,4.18
2023-01-10T01:36:22.894Z,3.61
2023-01-10T01:38:51.276Z,4.75
2023-01-10T01:41:38.583Z,4.56
2023-01-10T01:44:17.489Z,4.37
2023-01-10T01:47:00.014Z,5.13
2023-01-10T01:49:27.949Z,4.75
2023-01-10T01:52:04.945Z,4.75
2023-01-10T01:54:34.547Z,5.32
2023-01-10T01:57:13.686Z,5.89
2023-01-10T01:59:48.433Z,5.51
2023-01-10T02:02:28.443Z,4.18
2023-01-10T02:05:05.847Z,4.18
2023-01-10T02:07:40.209Z,3.80
2023-01-10T02:10:17.592Z,4.18
2023-01-10T02:12:53.638Z,4.56
2023-01-10T02:15:23.503Z,4.56
2023-01-10T02:17:53.986Z,4.75
2023-01-10T02:20:25.001Z,4.37
2023-01-10T02:23:38.653Z,5.51
2023-01-10T02:26:41.939Z,4.18
2023-01-10T02:29:44.143Z,3.42
2023-01-10T02:33:05.203Z,3.61
2023-01-10T02:36:19.665Z,4.37
2023-01-10T02:39:02.364Z,4.56
2023-01-10T02:41:59.134Z,4.18
2023-01-10T02:44:41.388Z,3.61
2023-01-10T02:47:13.941Z,3.61
2023-01-10T02:49:51.982Z,4.56
2023-01-10T02:52:30.300Z,4.37
2023-01-10T02:55:03.633Z,4.75
2023-01-10T02:58:17.974Z,4.56
2023-01-10T03:01:22.160Z,4.56
2023-01-10T03:04:12.949Z,5.32
2023-01-10T03:06:59.386Z,4.37
2023-01-10T03:09:34.517Z,6.08
2023-01-10T03:12:27.964Z,5.51
2023-01-10T03:15:00.518Z,6.08
2023-01-10T03:17:31.916Z,6.65
2023-01-10T03:20:06.489Z,6.08
2023-01-10T03:22:40.497Z,6.84
2023-01-10T03:25:14.498Z,6.84
2023-01-10T03:28:00.551Z,5.70
2023-01-10T03:30:45.543Z,5.70
2023-01-10T03:33:24.635Z,6.46
2023-01-10T03:36:17.311Z,6.46
2023-01-10T03:38:57.096Z,6.84
2023-01-10T03:41:47.526Z,6.08
2023-01-10T03:44:45.681Z,7.22
2023-01-10T03:47:49.538Z,6.65
2023-01-10T03:50:24.031Z,8.17
2023-01-10T03:52:53.742Z,6.84
2023-01-10T03:55:28.934Z,6.84
2023-01-10T03:57:58.656Z,7.79
2023-01-10T04:00:28.455Z,7.22
2023-01-10T04:02:58.965Z,8.55
2023-01-10T04:05:28.280Z,7.03
2023-01-10T04:07:56.748Z,7.41
2023-01-10T04:10:27.083Z,7.60
2023-01-10T04:13:01.627Z,7.22
2023-01-10T04:15:31.999Z,7.22
2023-01-10T04:17:59.669Z,6.65
2023-01-10T04:20:28.129Z,7.98
2023-01-10T04:22:56.504Z,7.79
2023-01-10T04:25:25.211Z,7.03
2023-01-10T04:27:53.381Z,8.74
2023-01-10T04:30:21.780Z,7.79
2023-01-10T04:32:50.146Z,7.60
2023-01-10T04:35:18.887Z,8.93
2023-01-10T04:37:46.971Z,8.55
2023-01-10T04:40:22.033Z,7.79
2023-01-10T04:42:51.753Z,9.31
2023-01-10T04:45:21.981Z,7.79
2023-01-10T04:47:52.764Z,7.79
2023-01-10T04:50:23.930Z,9.12
2023-01-10T04:52:53.956Z,8.93
2023-01-10T04:55:23.791Z,7.22
2023-01-10T04:57:53.693Z,8.74
2023-01-10T05:00:23.662Z,8.17
2023-01-10T05:02:58.167Z,8.36
2023-01-10T05:05:28.622Z,8.36
2023-01-10T05:07:58.542Z,6.84
2023-01-10T05:10:28.309Z,8.74
2023-01-10T05:12:58.137Z,8.93
2023-01-10T05:15:28.049Z,9.12
2023-01-10T05:18:01.029Z,9.50
2023-01-10T05:20:30.743Z,8.36
2023-01-10T05:23:00.601Z,10.07
2023-01-10T05:25:30.561Z,9.12
2023-01-10T05:28:01.101Z,9.12
2023-01-10T05:30:31.074Z,8.36
2023-01-10T05:33:00.896Z,9.69
2023-01-10T05:35:32.224Z,8.17
2023-01-10T05:38:03.020Z,9.31
2023-01-10T05:40:32.895Z,8.93
2023-01-10T05:43:02.593Z,7.98
2023-01-10T05:45:32.390Z,8.93
2023-01-10T05:48:02.164Z,8.17
2023-01-10T05:50:31.989Z,8.55
2023-01-10T05:53:05.657Z,8.74
2023-01-10T05:55:35.553Z,7.98
2023-01-10T05:58:05.333Z,9.88
2023-01-10T06:00:35.138Z,8.55
2023-01-10T06:03:04.983Z,8.74
2023-01-10T06:05:34.711Z,10.26
2023-01-10T06:08:04.827Z,7.41
2023-01-10T06:10:34.645Z,7.22
2023-01-10T06:13:05.291Z,10.45
2023-01-10T06:15:36.465Z,10.07
2023-01-10T06:18:07.763Z,9.31
2023-01-10T06:20:37.531Z,10.45
2023-01-10T06:23:07.690Z,9.12
2023-01-10T06:25:41.246Z,9.12
2023-01-10T06:28:14.370Z,9.50
2023-01-10T06:30:44.245Z,9.12
2023-01-10T06:33:14.442Z,8.55
2023-01-10T06:35:46.833Z,8.93
2023-01-10T06:38:16.692Z,10.07
2023-01-10T06:40:46.497Z,10.07
2023-01-10T06:43:16.364Z,9.69
2023-01-10T06:45:46.095Z,9.69
2023-01-10T06:48:16.176Z,10.07
2023-01-10T06:50:45.958Z,8.55
2023-01-10T06:53:15.733Z,10.83
2023-01-10T06:55:45.446Z,9.69
2023-01-10T06:58:18.526Z,11.21
2023-01-10T07:00:48.267Z,8.93
2023-01-10T07:03:18.236Z,10.64
2023-01-10T07:05:48.000Z,10.45
2023-01-10T07:08:17.905Z,9.50
2023-01-10T07:10:47.639Z,10.26
2023-01-10T07:13:17.476Z,9.88
2023-01-10T07:15:47.251Z,9.31
2023-01-10T07:18:17.469Z,12.35
2023-01-10T07:20:47.177Z,9.50
2023-01-10T07:23:15.734Z,10.64
2023-01-10T07:25:44.071Z,11.02
2023-01-10T07:28:12.555Z,10.45
2023-01-10T07:30:41.005Z,11.40
2023-01-10T07:33:09.393Z,11.02
2023-01-10T07:35:37.836Z,9.69
2023-01-10T07:38:06.549Z,10.64
2023-01-10T07:40:35.044Z,10.45
2023-01-10T07:43:03.767Z,10.83
2023-01-10T07:45:31.567Z,9.31
2023-01-10T07:48:03.642Z,12.54
2023-01-10T07:50:35.906Z,11.40
2023-01-10T07:53:08.381Z,9.88
2023-01-10T07:55:39.879Z,11.21
2023-01-10T07:58:10.579Z,12.35
2023-01-10T08:00:40.613Z,12.73
2023-01-10T08:03:11.347Z,11.97
2023-01-10T08:05:41.703Z,11.78
2023-01-10T08:08:12.983Z,12.16
2023-01-10T08:10:43.064Z,13.11
2023-01-10T08:13:18.725Z,11.78
2023-01-10T08:15:52.559Z,11.40
2023-01-10T08:18:24.859Z,11.78
2023-01-10T08:20:56.493Z,12.54
2023-01-10T08:23:26.869Z,10.83
2023-01-10T08:25:59.760Z,11.40
2023-01-10T08:28:29.610Z,12.35
2023-01-10T08:31:04.468Z,12.73
2023-01-10T08:33:34.406Z,11.02
2023-01-10T08:36:04.499Z,10.26
2023-01-10T08:38:34.306Z,12.35
2023-01-10T08:41:04.212Z,12.16
2023-01-10T08:43:34.013Z,11.97
2023-01-10T08:46:03.927Z,11.59
2023-01-10T08:48:34.112Z,13.11
2023-01-10T08:51:09.640Z,10.83
2023-01-10T08:53:40.323Z,11.40
2023-01-10T08:56:11.323Z,11.78
2023-01-10T08:58:41.136Z,10.83
2023-01-10T09:01:12.956Z,13.11
2023-01-10T09:03:43.426Z,11.21
2023-01-10T09:06:13.402Z,11.02
2023-01-10T09:08:43.274Z,12.54
2023-01-10T09:11:11.723Z,11.59
2023-01-10T09:13:40.670Z,12.92
2023-01-10T09:16:09.709Z,9.31
2023-01-10T09:18:36.930Z,11.59
2023-01-10T09:21:05.851Z,11.78
2023-01-10T09:23:36.036Z,12.73
2023-01-10T09:26:06.047Z,10.83
2023-01-10T09:28:33.722Z,10.26
2023-01-10T09:31:04.338Z,8.74
2023-01-10T09:33:46.251Z,9.50
2023-01-10T09:36:16.841Z,9.31
2023-01-10T09:38:46.641Z,9.69
2023-01-10T09:41:25.308Z,10.26
2023-01-10T09:44:05.682Z,11.21
2023-01-10T09:47:22.023Z,11.02
2023-01-10T09:50:16.514Z,11.02
2023-01-10T09:52:53.238Z,9.31
2023-01-10T09:55:35.769Z,10.64
2023-01-10T09:58:16.651Z,9.12
2023-01-10T10:01:07.609Z,9.50
2023-01-10T10:04:07.555Z,9.88
2023-01-10T10:06:37.766Z,9.31
2023-01-10T10:09:15.204Z,9.31
2023-01-10T10:11:50.540Z,9.31
2023-01-10T10:14:46.445Z,8.17
2023-01-10T10:17:50.510Z,8.93
2023-01-10T10:21:24.567Z,8.17
2023-01-10T10:24:16.199Z,8.93
2023-01-10T10:28:01.479Z,8.93
2023-01-10T10:30:52.476Z,8.36
2023-01-10T10:33:39.584Z,9.31
2023-01-10T10:36:23.811Z,7.41
2023-01-10T10:39:00.029Z,8.74
2023-01-10T10:41:38.365Z,8.93
2023-01-10T10:44:41.925Z,7.79
2023-01-10T10:47:19.575Z,8.74
2023-01-10T10:50:32.667Z,8.36
2023-01-10T10:53:05.508Z,8.93
2023-01-10T10:55:37.659Z,8.36
2023-01-10T10:58:10.496Z,7.60
2023-01-10T11:00:41.756Z,8.55
2023-01-10T11:03:39.946Z,7.79
2023-01-10T11:06:10.939Z,8.17
2023-01-10T11:08:45.547Z,7.41
2023-01-10T11:11:31.595Z,8.36
2023-01-10T11:14:05.838Z,7.98
2023-01-10T11:16:43.712Z,7.79
2023-01-10T11:19:30.255Z,8.17
2023-01-10T11:22:03.827Z,8.17
2023-01-10T11:24:50.148Z,7.79
2023-01-10T11:27:32.354Z,8.36
2023-01-10T11:30:08.677Z,7.22
2023-01-10T11:32:51.829Z,6.27
2023-01-10T11:35:23.710Z,6.65
2023-01-10T11:38:14.733Z,7.98
2023-01-10T11:41:00.466Z,7.03
2023-01-10T11:43:40.780Z,7.60
2023-01-10T11:46:21.063Z,6.27
2023-01-10T11:49:10.953Z,6.65
2023-01-10T11:51:50.659Z,6.27
2023-01-10T11:54:27.860Z,5.70
2023-01-10T11:57:27.158Z,6.46
2023-01-10T12:00:10.457Z,7.60
2023-01-10T12:02:43.802Z,5.32
2023-01-10T12:05:23.666Z,6.46
2023-01-10T12:08:06.299Z,7.41
2023-01-10T12:10:36.588Z,6.27
2023-01-10T12:13:16.959Z,6.27
2023-01-10T12:15:46.940Z,7.03
2023-01-10T12:18:18.711Z,5.70
2023-01-10T12:20:52.527Z,5.51
2023-01-10T12:23:25.317Z,4.75
2023-01-10T12:26:10.759Z,5.13
2023-01-10T12:28:51.120Z,4.37
2023-01-10T12:31:23.405Z,4.56
2023-01-10T12:34:05.174Z,4.56
2023-01-10T12:36:54.790Z,4.56
2023-01-10T12:39:34.771Z,5.13
2023-01-10T12:42:30.289Z,4.75
2023-01-10T12:45:16.673Z,4.56
2023-01-10T12:47:46.425Z,4.75
2023-01-10T12:50:27.683Z,4.75
2023-01-10T12:53:11.524Z,4.56
2023-01-10T12:55:46.751Z,4.94
2023-01-10T12:58:43.999Z,3.80
2023-01-10T13:01:35.054Z,4.18
2023-01-10T13:04:15.887Z,4.18
2023-01-10T13:06:45.916Z,4.75
2023-01-10T13:09:29.126Z,3.61
2023-01-10T13:12:24.420Z,4.56
2023-01-10T13:15:03.551Z,5.13
2023-01-10T13:17:33.180Z,3.42
2023-01-10T13:20:21.501Z,4.37
2023-01-10T13:22:55.966Z,5.13
2023-01-10T13:25:38.891Z,3.42
2023-01-10T13:28:22.733Z,4.37
2023-01-10T13:31:02.832Z,4.37
2023-01-10T13:34:00.451Z,4.56
2023-01-10T13:37:04.603Z,3.80
2023-01-10T13:39:40.202Z,3.23
2023-01-10T13:42:42.378Z,3.61
2023-01-10T13:45:13.412Z,4.37
2023-01-10T13:47:44.094Z,4.18
2023-01-10T13:50:22.921Z,4.75
2023-01-10T13:53:08.402Z,4.37
2023-01-10T13:55:38.975Z,4.18
2023-01-10T13:58:37.690Z,3.99
2023-01-10T14:01:44.779Z,3.80
2023-01-10T14:04:23.697Z,3.99
2023-01-10T14:06:59.666Z,3.80
2023-01-10T14:09:36.177Z,4.56
2023-01-10T14:12:29.651Z,4.56
2023-01-10T14:15:20.223Z,4.75
2023-01-10T14:18:01.014Z,3.99
2023-01-10T14:20:35.356Z,4.18
2023-01-10T14:23:17.113Z,4.37
2023-01-10T14:25:55.400Z,4.94
2023-01-10T14:28:36.098Z,4.75
2023-01-10T14:31:20.935Z,4.37
2023-01-10T14:33:53.257Z,5.32
2023-01-10T14:36:33.476Z,5.13
2023-01-10T14:39:07.775Z,5.89
2023-01-10T14:41:45.868Z,5.89
2023-01-10T14:44:20.194Z,6.08
2023-01-10T14:46:56.629Z,5.70
2023-01-10T14:49:49.766Z,6.84
2023-01-10T14:52:26.371Z,5.70
2023-01-10T14:55:22.586Z,7.03
2023-01-10T14:58:01.656Z,5.70
2023-01-10T15:00:36.724Z,5.51
2023-01-10T15:03:09.128Z,4.75
2023-01-10T15:05:53.883Z,4.56
2023-01-10T15:08:28.676Z,6.46
2023-01-10T15:11:09.303Z,5.32
2023-01-10T15:13:50.673Z,5.51
2023-01-10T15:16:24.268Z,4.94
2023-01-10T15:18:56.556Z,4.18
2023-01-10T15:21:25.903Z,4.37
2023-01-10T15:23:53.533Z,5.32
2023-01-10T15:26:33.265Z,5.32
2023-01-10T15:29:19.345Z,6.84
2023-01-10T15:31:50.716Z,4.75
2023-01-10T15:34:22.607Z,5.89
2023-01-10T15:37:00.065Z,6.65
2023-01-10T15:39:35.601Z,5.70
2023-01-10T15:42:14.293Z,6.08
2023-01-10T15:44:52.345Z,5.51
2023-01-10T15:47:48.554Z,5.51
2023-01-10T15:50:28.312Z,4.94
2023-01-10T15:53:06.423Z,4.94
2023-01-10T15:56:10.661Z,4.75
2023-01-10T15:58:43.731Z,4.75
2023-01-10T16:01:16.224Z,4.75
2023-01-10T16:03:50.978Z,4.75
2023-01-10T16:06:35.935Z,4.56
2023-01-10T16:09:17.657Z,5.89
2023-01-10T16:12:18.765Z,5.70
2023-01-10T16:14:48.521Z,7.98
2023-01-10T16:17:15.842Z,9.69
2023-01-10T16:19:42.706Z,11.02
2023-01-10T16:22:19.168Z,10.64
2023-01-10T16:24:52.430Z,10.07
2023-01-10T16:27:22.208Z,8.36
2023-01-10T16:29:53.590Z,8.36
2023-01-10T16:32:23.386Z,8.17
2023-01-10T16:34:53.166Z,7.41
2023-01-10T16:37:24.944Z,6.84
2023-01-10T16:39:56.579Z,6.65
2023-01-10T16:43:17.933Z,6.65
2023-01-10T16:46:00.352Z,7.22
2023-01-10T16:48:31.952Z,5.89
2023-01-10T16:51:26.224Z,5.51
2023-01-10T16:53:56.266Z,6.08
2023-01-10T16:56:29.046Z,6.46
2023-01-10T16:58:58.604Z,6.84
2023-01-10T17:01:34.542Z,5.70
2023-01-10T17:04:07.397Z,4.94
2023-01-10T17:06:40.118Z,6.08
2023-01-10T17:09:25.196Z,5.70
2023-01-10T17:12:02.365Z,5.51
2023-01-10T17:14:37.649Z,6.27
2023-01-10T17:17:07.350Z,5.32
2023-01-10T17:19:38.532Z,5.51
2023-01-10T17:22:08.223Z,5.70
2023-01-10T17:24:38.436Z,5.70
2023-01-10T17:27:09.843Z,6.65
2023-01-10T17:29:39.824Z,6.08
2023-01-10T17:50:19.352Z,7.22
2023-01-10T17:52:49.676Z,6.08
2023-01-10T17:55:19.496Z,6.46
2023-01-10T17:57:49.347Z,5.70
2023-01-10T18:00:19.613Z,7.03
2023-01-10T18:02:49.859Z,7.03
2023-01-10T18:05:19.730Z,7.22
2023-01-10T18:07:49.476Z,7.03
2023-01-10T18:10:19.752Z,6.84
2023-01-10T18:12:49.605Z,7.03
2023-01-10T18:15:19.384Z,8.93
2023-01-10T18:17:49.348Z,7.60
2023-01-10T18:20:19.777Z,7.98
2023-01-10T18:23:08.697Z,7.60
2023-01-10T18:25:38.504Z,8.17
2023-01-10T18:28:08.297Z,7.79
2023-01-10T18:30:40.349Z,6.84
2023-01-10T18:33:10.222Z,8.17
2023-01-10T18:35:39.244Z,8.17
2023-01-10T18:38:07.194Z,9.50
2023-01-10T18:40:35.372Z,7.41
2023-01-10T18:43:03.868Z,8.36
2023-01-10T18:45:32.722Z,7.79
2023-01-10T18:48:01.655Z,8.55
2023-01-10T18:50:28.553Z,9.12
2023-01-10T18:52:57.656Z,9.31
2023-01-10T18:55:25.383Z,8.74
2023-01-10T18:57:53.742Z,7.98
2023-01-10T19:00:22.695Z,8.36
2023-01-10T19:02:50.746Z,7.41
2023-01-10T19:05:18.975Z,8.55
2023-01-10T19:07:47.833Z,7.41
2023-01-10T19:10:18.972Z,8.55
2023-01-10T19:12:48.976Z,8.55
2023-01-10T19:15:18.762Z,8.74
2023-01-10T19:17:48.556Z,8.55
2023-01-10T19:20:18.358Z,8.93
2023-01-10T19:22:48.356Z,7.41
2023-01-10T19:25:18.259Z,5.89
2023-01-10T19:27:48.005Z,7.79
2023-01-10T19:30:17.138Z,8.17
2023-01-10T19:32:44.778Z,7.98
2023-01-10T19:35:13.301Z,8.17
2023-01-10T19:37:40.534Z,6.84
2023-01-10T19:40:10.104Z,7.60
2023-01-10T19:42:39.263Z,7.60
2023-01-10T19:45:08.720Z,7.22
2023-01-10T19:47:36.904Z,6.08
2023-01-10T19:50:05.469Z,5.70
2023-01-10T19:52:33.069Z,6.84
2023-01-10T19:55:01.472Z,6.08
2023-01-10T19:57:29.817Z,5.70
2023-01-10T19:59:58.374Z,6.46
2023-01-10T20:02:26.722Z,6.27
2023-01-10T20:04:55.058Z,5.89
2023-01-10T20:07:23.584Z,7.03
2023-01-10T20:09:57.034Z,6.65
2023-01-10T20:12:27.034Z,5.89
2023-01-10T20:14:56.758Z,6.27
2023-01-10T20:17:23.776Z,5.70
2023-01-10T20:19:50.939Z,5.89
2023-01-10T20:22:21.899Z,6.08
2023-01-10T20:24:51.145Z,5.89
2023-01-10T20:27:21.403Z,5.70
2023-01-10T20:29:51.206Z,5.89
2023-01-10T20:32:22.293Z,5.89
2023-01-10T20:34:51.973Z,5.89
2023-01-10T20:37:23.525Z,6.27
2023-01-10T20:39:54.194Z,5.32
2023-01-10T20:42:24.241Z,6.08
2023-01-10T20:44:54.044Z,5.32
2023-01-10T20:47:23.857Z,6.46
2023-01-10T20:49:53.638Z,6.08
2023-01-10T20:52:23.463Z,5.89
2023-01-10T20:54:53.657Z,5.89
2023-01-10T20:57:23.355Z,7.60
2023-01-10T20:59:50.304Z,7.60
2023-01-10T21:02:17.592Z,6.84
2023-01-10T21:04:50.326Z,7.41
2023-01-10T21:07:20.198Z,7.03
2023-01-10T21:09:49.929Z,7.41
2023-01-10T21:12:23.501Z,6.65
2023-01-10T21:14:53.868Z,6.27
2023-01-10T21:17:23.602Z,6.08
2023-01-10T21:19:52.014Z,6.27
2023-01-10T21:22:20.543Z,6.46
2023-01-10T21:24:49.890Z,6.08
2023-01-10T21:27:17.396Z,7.03
2023-01-10T21:29:45.886Z,5.70
2023-01-10T21:32:14.391Z,6.08
2023-01-10T21:34:42.849Z,5.70
2023-01-10T21:37:11.271Z,6.84
2023-01-10T21:39:39.736Z,6.65
2023-01-10T21:42:30.737Z,5.51
2023-01-10T21:45:08.182Z,4.94
2023-01-10T21:47:38.816Z,5.89
2023-01-10T21:50:12.211Z,6.65
2023-01-10T21:52:42.683Z,6.08
2023-01-10T21:55:15.844Z,6.08
2023-01-10T21:57:45.278Z,5.89
2023-01-10T22:00:13.226Z,5.70
2023-01-10T22:02:44.269Z,6.27
2023-01-10T22:05:14.251Z,5.89
2023-01-10T22:07:44.882Z,4.94
2023-01-10T22:10:13.682Z,5.70
2023-01-10T22:12:41.477Z,6.08
2023-01-10T22:15:12.178Z,5.13
2023-01-10T22:17:41.825Z,6.08
2023-01-10T22:20:12.512Z,5.51
2023-01-10T22:22:41.922Z,4.37
2023-01-10T22:25:11.725Z,5.32
2023-01-10T22:27:44.106Z,4.94
2023-01-10T22:30:14.893Z,5.32
2023-01-10T22:32:41.936Z,4.94
2023-01-10T22:35:14.746Z,5.13
2023-01-10T22:37:43.519Z,4.56
2023-01-10T22:40:13.351Z,5.13
2023-01-10T22:42:43.129Z,4.37
2023-01-10T22:45:12.878Z,4.75
2023-01-10T22:47:42.684Z,4.56
2023-01-10T22:50:12.509Z,5.13
2023-01-10T22:52:42.231Z,6.08
2023-01-10T22:55:12.008Z,5.13
2023-01-10T22:57:47.341Z,4.75
2023-01-10T23:00:19.939Z,4.18
2023-01-10T23:02:49.869Z,5.32
2023-01-10T23:05:19.688Z,5.51
2023-01-10T23:07:51.507Z,6.46
2023-01-10T23:10:30.217Z,4.75
2023-01-10T23:13:02.195Z,4.37
2023-01-10T23:15:32.036Z,5.70
2023-01-10T23:18:01.895Z,4.75
2023-01-10T23:20:33.525Z,5.32
2023-01-10T23:23:03.627Z,4.94
2023-01-10T23:25:33.451Z,5.70
2023-01-10T23:28:03.444Z,3.61
2023-01-10T23:30:33.167Z,3.99
2023-01-10T23:33:03.399Z,4.94
2023-01-10T23:35:33.157Z,5.13
2023-01-10T23:38:02.958Z,5.51
2023-01-10T23:40:32.691Z,4.37
2023-01-10T23:43:02.681Z,4.18
2023-01-10T23:45:33.384Z,4.37
2023-01-10T23:48:04.628Z,4.75
2023-01-10T23:50:35.149Z,4.94
2023-01-10T23:53:05.751Z,4.37
2023-01-10T23:55:35.755Z,4.56
2023-01-10T23:58:05.537Z,4.18
